Thunder radar more information blitzortung!


Radar de pluja more information rain snow radar


Visita la nostra xarxa de llocs de meteo:

Template documentation
and downloads

And another site



No particular awareness of the weather is required.    There are no Weather-warnings

Pagina Historial Weather Underground text

Diari Resum Juny 22, 2017 Unitats:  Tant    Imperial   Mètric
« Previous Dia
SegĂźent Dia »
Diari Setmana Mensual Anual Personalitzada
  Maxima: Minima: Media:
Temperatura: TemperatureC °F /  -17.8 °C 22.3 °F /  -5.4 °C 29.6 °F /  -1.3 °C
Punt de rosada: DewpointC °F /  -17.8 °C 11.7 °F /  -11.3 °C 14.2 °F /  -9.9 °C
Humitat: Humidity % 30 % 40 %
Wind Speed: WindSpeedKMH mph /  0 km/h - 9.2 mph /  14.8 km/h
RĂ fegues de vent: WindSpeedGustKMH mph /  0 km/h - -
Vent:- - SW
Pression baro: PressurehPa in /  0 hPa 1014.8 in /  34361.1 hPa -
Precipitacions: 0.0 in /  0 mm    
Historical Graphs
 
 
Dades de taula per Juny 22, 2017
Temps Temperatura Punt de rosada Pression baro Vent Wind Speed RĂ fegues de vent Humitat Rainfall Rate (Hourly)
TemperatureC °F /  -17.8 °C DewpointC °F /  -17.8 °C PressurehPa in /  0 hPa Calm     Humidity % HourlyPrecipMM in /  0 mm
00:01 24.1 °F /  -4.4 °C 14.8 °F /  -9.6 °C 1015.8 in /  34395 hPa West 5.6 mph /  9 km/h 5.6 mph /  9 km/h 56 % 0.0 in /  0 mm
04:55 27.4 °F /  -2.6 °C 17.8 °F /  -7.9 °C 1014.8 in /  34361.1 hPa SW 1.6 mph /  2.6 km/h 6.4 mph /  10.3 km/h 56 % 0.0 in /  0 mm
05:05 28.1 °F /  -2.2 °C 18.2 °F /  -7.7 °C 1014.8 in /  34361.1 hPa Calm   4.8 mph /  7.7 km/h 55 % 0.0 in /  0 mm
05:15 29.0 °F /  -1.7 °C 18.4 °F /  -7.6 °C 1014.8 in /  34361.1 hPa SSW 1.6 mph /  2.6 km/h 3.2 mph /  5.1 km/h 53 % 0.0 in /  0 mm
05:25 29.3 °F /  -1.5 °C 18.1 °F /  -7.7 °C 1014.8 in /  34361.1 hPa SW 1.6 mph /  2.6 km/h 3.2 mph /  5.1 km/h 51 % 0.0 in /  0 mm
05:35 29.2 °F /  -1.6 °C 18.0 °F /  -7.8 °C 1014.8 in /  34361.1 hPa SW 3.2 mph /  5.1 km/h 4.8 mph /  7.7 km/h 51 % 0.0 in /  0 mm
10:38 29.3 °F /  -1.5 °C 17.5 °F /  -8.1 °C 1015.8 in /  34395 hPa SW 7.4 mph /  11.9 km/h 7.4 mph /  11.9 km/h 49 % 0.0 in /  0 mm
10:43 29.9 °F /  -1.2 °C 18.1 °F /  -7.7 °C 1015.8 in /  34395 hPa SSW 5.6 mph /  9 km/h 5.6 mph /  9 km/h 49 % 0.0 in /  0 mm
10:48 30.1 °F /  -1.1 °C 17.9 °F /  -7.8 °C 1015.8 in /  34395 hPa WSW 5.6 mph /  9 km/h 5.6 mph /  9 km/h 48 % 0.0 in /  0 mm
10:53 30.4 °F /  -0.9 °C 18.2 °F /  -7.7 °C 1015.8 in /  34395 hPa SW 7.4 mph /  11.9 km/h 7.4 mph /  11.9 km/h 48 % 0.0 in /  0 mm
10:58 30.7 °F /  -0.7 °C 18.4 °F /  -7.6 °C 1016.8 in /  34428.8 hPa SSW 5.6 mph /  9 km/h 5.6 mph /  9 km/h 48 % 0.0 in /  0 mm
11:03 31.0 °F /  -0.6 °C 18.0 °F /  -7.8 °C 1016.8 in /  34428.8 hPa SSE 6.9 mph /  11.1 km/h 6.9 mph /  11.1 km/h 46 % 0.0 in /  0 mm
11:08 31.0 °F /  -0.6 °C 18.0 °F /  -7.8 °C 1016.8 in /  34428.8 hPa WSW 5.6 mph /  9 km/h 5.6 mph /  9 km/h 46 % 0.0 in /  0 mm
11:13 31.0 °F /  -0.6 °C 17.7 °F /  -7.9 °C 1015.8 in /  34395 hPa SSE 7.4 mph /  11.9 km/h 7.4 mph /  11.9 km/h 45 % 0.0 in /  0 mm
11:18 31.9 °F /  -0.1 °C 18.1 °F /  -7.7 °C 1015.8 in /  34395 hPa SSW 5.6 mph /  9 km/h 5.6 mph /  9 km/h 44 % 0.0 in /  0 mm
11:23 32.3 °F /  0.2 °C 18.1 °F /  -7.7 °C 1015.8 in /  34395 hPa WSW 7.4 mph /  11.9 km/h 7.4 mph /  11.9 km/h 43 % 0.0 in /  0 mm
11:28 32.7 °F /  0.4 °C 18.5 °F /  -7.5 °C 1015.8 in /  34395 hPa West 3.7 mph /  6 km/h 3.7 mph /  6 km/h 43 % 0.0 in /  0 mm
11:33 33.0 °F /  0.6 °C 18.0 °F /  -7.8 °C 1015.8 in /  34395 hPa SW 8.7 mph /  14 km/h 8.7 mph /  14 km/h 41 % 0.0 in /  0 mm
11:38 33.2 °F /  0.7 °C 18.2 °F /  -7.7 °C 1015.8 in /  34395 hPa SW 3.7 mph /  6 km/h 3.7 mph /  6 km/h 41 % 0.0 in /  0 mm
11:43 33.0 °F /  0.6 °C 17.6 °F /  -8 °C 1015.8 in /  34395 hPa SSW 4.2 mph /  6.8 km/h 4.2 mph /  6.8 km/h 40 % 0.0 in /  0 mm
11:48 33.2 °F /  0.7 °C 17.8 °F /  -7.9 °C 1015.8 in /  34395 hPa West 5.6 mph /  9 km/h 5.6 mph /  9 km/h 40 % 0.0 in /  0 mm
11:53 33.5 °F /  0.8 °C 17.7 °F /  -7.9 °C 1015.8 in /  34395 hPa SSW 7.6 mph /  12.2 km/h 7.6 mph /  12.2 km/h 39 % 0.0 in /  0 mm
11:58 33.5 °F /  0.8 °C 17.2 °F /  -8.2 °C 1014.8 in /  34361.1 hPa NW 7.4 mph /  11.9 km/h 7.4 mph /  11.9 km/h 38 % 0.0 in /  0 mm
12:03 33.7 °F /  0.9 °C 17.4 °F /  -8.1 °C 1014.8 in /  34361.1 hPa West 9.3 mph /  15 km/h 9.3 mph /  15 km/h 38 % 0.0 in /  0 mm
12:08 34.0 °F /  1.1 °C 17.3 °F /  -8.2 °C 1014.8 in /  34361.1 hPa WSW 2.3 mph /  3.7 km/h 2.3 mph /  3.7 km/h 37 % 0.0 in /  0 mm
12:13 34.3 °F /  1.3 °C 17.5 °F /  -8.1 °C 1015.8 in /  34395 hPa WSW 7.4 mph /  11.9 km/h 7.4 mph /  11.9 km/h 37 % 0.0 in /  0 mm
12:18 34.4 °F /  1.3 °C 17.2 °F /  -8.2 °C 1015.8 in /  34395 hPa WSW 5.6 mph /  9 km/h 5.6 mph /  9 km/h 36 % 0.0 in /  0 mm
12:20 34.5 °F /  1.4 °C 17.3 °F /  -8.2 °C 1015.8 in /  34395 hPa SW 5.6 mph /  9 km/h 5.6 mph /  9 km/h 36 % 0.0 in /  0 mm
12:25 35.0 °F /  1.7 °C 16.8 °F /  -8.4 °C 1015.8 in /  34395 hPa WSW 7.4 mph /  11.9 km/h 7.4 mph /  11.9 km/h 34 % 0.0 in /  0 mm
12:30 35.4 °F /  1.9 °C 17.2 °F /  -8.2 °C 1015.8 in /  34395 hPa WSW 5.6 mph /  9 km/h 5.8 mph /  9.3 km/h 34 % 0.0 in /  0 mm
12:35 34.6 °F /  1.4 °C 16.0 °F /  -8.9 °C 1015.8 in /  34395 hPa SE 9.3 mph /  15 km/h 9.3 mph /  15 km/h 33 % 0.0 in /  0 mm
12:40 34.9 °F /  1.6 °C 16.2 °F /  -8.8 °C 1015.8 in /  34395 hPa SW 7.4 mph /  11.9 km/h 7.4 mph /  11.9 km/h 33 % 0.0 in /  0 mm
12:45 34.9 °F /  1.6 °C 15.8 °F /  -9 °C 1015.8 in /  34395 hPa SW 9.5 mph /  15.3 km/h 9.5 mph /  15.3 km/h 32 % 0.0 in /  0 mm
12:50 35.2 °F /  1.8 °C 16.0 °F /  -8.9 °C 1015.8 in /  34395 hPa SW 7.4 mph /  11.9 km/h 7.4 mph /  11.9 km/h 32 % 0.0 in /  0 mm
12:55 35.3 °F /  1.8 °C 15.6 °F /  -9.1 °C 1015.8 in /  34395 hPa SW 7.6 mph /  12.2 km/h 7.6 mph /  12.2 km/h 31 % 0.0 in /  0 mm
13:00 35.4 °F /  1.9 °C 15.7 °F /  -9.1 °C 1015.8 in /  34395 hPa WSW 5.8 mph /  9.3 km/h 5.8 mph /  9.3 km/h 31 % 0.0 in /  0 mm
13:05 35.4 °F /  1.9 °C 15.7 °F /  -9.1 °C 1015.8 in /  34395 hPa SW 9.3 mph /  15 km/h 9.3 mph /  15 km/h 31 % 0.0 in /  0 mm
13:10 35.3 °F /  1.8 °C 15.6 °F /  -9.1 °C 1015.8 in /  34395 hPa WSW 13.0 mph /  20.9 km/h 13.0 mph /  20.9 km/h 31 % 0.0 in /  0 mm
13:15 35.9 °F /  2.2 °C 16.6 °F /  -8.6 °C 1015.8 in /  34395 hPa South 7.4 mph /  11.9 km/h 7.4 mph /  11.9 km/h 32 % 0.0 in /  0 mm
13:20 35.9 °F /  2.2 °C 16.1 °F /  -8.8 °C 1015.8 in /  34395 hPa West 13.0 mph /  20.9 km/h 13.0 mph /  20.9 km/h 31 % 0.0 in /  0 mm
13:25 35.5 °F /  1.9 °C 15.8 °F /  -9 °C 1015.8 in /  34395 hPa WSW 13.0 mph /  20.9 km/h 13.0 mph /  20.9 km/h 31 % 0.0 in /  0 mm
13:30 35.5 °F /  1.9 °C 16.3 °F /  -8.7 °C 1014.8 in /  34361.1 hPa SW 9.3 mph /  15 km/h 9.3 mph /  15 km/h 32 % 0.0 in /  0 mm
13:35 35.8 °F /  2.1 °C 16.1 °F /  -8.8 °C 1014.8 in /  34361.1 hPa SW 11.9 mph /  19.2 km/h 11.9 mph /  19.2 km/h 31 % 0.0 in /  0 mm
13:40 35.7 °F /  2.1 °C 16.4 °F /  -8.7 °C 1014.8 in /  34361.1 hPa SSW 11.1 mph /  17.9 km/h 11.1 mph /  17.9 km/h 32 % 0.0 in /  0 mm
13:45 35.4 °F /  1.9 °C 15.2 °F /  -9.3 °C 1014.8 in /  34361.1 hPa South 16.7 mph /  26.9 km/h 16.7 mph /  26.9 km/h 30 % 0.0 in /  0 mm
13:50 35.2 °F /  1.8 °C 15.5 °F /  -9.2 °C 1014.8 in /  34361.1 hPa WSW 13.0 mph /  20.9 km/h 13.0 mph /  20.9 km/h 31 % 0.0 in /  0 mm
13:51 35.1 °F /  1.7 °C 15.4 °F /  -9.2 °C 1014.8 in /  34361.1 hPa SW 15.8 mph /  25.4 km/h 15.8 mph /  25.4 km/h 31 % 0.0 in /  0 mm
13:56 35.1 °F /  1.7 °C 15.4 °F /  -9.2 °C 1014.8 in /  34361.1 hPa SW 18.5 mph /  29.8 km/h 18.5 mph /  29.8 km/h 31 % 0.0 in /  0 mm
14:01 35.1 °F /  1.7 °C 15.9 °F /  -8.9 °C 1015.8 in /  34395 hPa WSW 13.0 mph /  20.9 km/h 13.0 mph /  20.9 km/h 32 % 0.0 in /  0 mm
14:06 34.9 °F /  1.6 °C 16.2 °F /  -8.8 °C 1015.8 in /  34395 hPa SSW 17.2 mph /  27.7 km/h 17.2 mph /  27.7 km/h 33 % 0.0 in /  0 mm
14:11 34.9 °F /  1.6 °C 16.2 °F /  -8.8 °C 1015.8 in /  34395 hPa WSW 9.3 mph /  15 km/h 9.3 mph /  15 km/h 33 % 0.0 in /  0 mm
14:16 35.1 °F /  1.7 °C 15.9 °F /  -8.9 °C 1015.8 in /  34395 hPa SSW 20.4 mph /  32.8 km/h 20.4 mph /  32.8 km/h 32 % 0.0 in /  0 mm
14:21 34.4 °F /  1.3 °C 15.8 °F /  -9 °C 1015.8 in /  34395 hPa SW 20.4 mph /  32.8 km/h 20.4 mph /  32.8 km/h 33 % 0.0 in /  0 mm
14:26 34.3 °F /  1.3 °C 15.7 °F /  -9.1 °C 1015.8 in /  34395 hPa SW 22.2 mph /  35.7 km/h 22.2 mph /  35.7 km/h 33 % 0.0 in /  0 mm
14:31 34.5 °F /  1.4 °C 15.9 °F /  -8.9 °C 1014.8 in /  34361.1 hPa West 13.0 mph /  20.9 km/h 13.0 mph /  20.9 km/h 33 % 0.0 in /  0 mm
14:36 34.4 °F /  1.3 °C 15.8 °F /  -9 °C 1014.8 in /  34361.1 hPa SSE 11.1 mph /  17.9 km/h 11.1 mph /  17.9 km/h 33 % 0.0 in /  0 mm
14:41 34.5 °F /  1.4 °C 15.4 °F /  -9.2 °C 1014.8 in /  34361.1 hPa SW 16.7 mph /  26.9 km/h 16.7 mph /  26.9 km/h 32 % 0.0 in /  0 mm
14:46 34.5 °F /  1.4 °C 15.4 °F /  -9.2 °C 1014.8 in /  34361.1 hPa WSW 14.8 mph /  23.8 km/h 14.8 mph /  23.8 km/h 32 % 0.0 in /  0 mm
14:51 34.5 °F /  1.4 °C 15.4 °F /  -9.2 °C 1014.8 in /  34361.1 hPa SW 20.4 mph /  32.8 km/h 20.4 mph /  32.8 km/h 32 % 0.0 in /  0 mm
14:56 34.0 °F /  1.1 °C 15.0 °F /  -9.4 °C 1014.8 in /  34361.1 hPa SW 18.5 mph /  29.8 km/h 18.5 mph /  29.8 km/h 32 % 0.0 in /  0 mm
15:01 34.1 °F /  1.2 °C 15.1 °F /  -9.4 °C 1014.8 in /  34361.1 hPa West 15.8 mph /  25.4 km/h 15.8 mph /  25.4 km/h 32 % 0.0 in /  0 mm
15:06 34.2 °F /  1.2 °C 15.2 °F /  -9.3 °C 1014.8 in /  34361.1 hPa SW 13.0 mph /  20.9 km/h 13.0 mph /  20.9 km/h 32 % 0.0 in /  0 mm
15:11 34.1 °F /  1.2 °C 15.1 °F /  -9.4 °C 1014.8 in /  34361.1 hPa WSW 16.7 mph /  26.9 km/h 16.7 mph /  26.9 km/h 32 % 0.0 in /  0 mm
15:16 34.2 °F /  1.2 °C 15.2 °F /  -9.3 °C 1014.8 in /  34361.1 hPa SSW 16.7 mph /  26.9 km/h 16.7 mph /  26.9 km/h 32 % 0.0 in /  0 mm
15:21 33.9 °F /  1.1 °C 14.9 °F /  -9.5 °C 1014.8 in /  34361.1 hPa WSW 18.5 mph /  29.8 km/h 18.5 mph /  29.8 km/h 32 % 0.0 in /  0 mm
15:26 34.1 °F /  1.2 °C 14.6 °F /  -9.7 °C 1014.8 in /  34361.1 hPa SW 16.9 mph /  27.2 km/h 16.9 mph /  27.2 km/h 31 % 0.0 in /  0 mm
15:31 34.2 °F /  1.2 °C 14.7 °F /  -9.6 °C 1014.8 in /  34361.1 hPa SSW 13.0 mph /  20.9 km/h 13.0 mph /  20.9 km/h 31 % 0.0 in /  0 mm
15:36 34.5 °F /  1.4 °C 14.4 °F /  -9.8 °C 1014.8 in /  34361.1 hPa South 11.1 mph /  17.9 km/h 11.1 mph /  17.9 km/h 30 % 0.0 in /  0 mm
15:41 33.9 °F /  1.1 °C 13.9 °F /  -10.1 °C 1014.8 in /  34361.1 hPa WSW 16.7 mph /  26.9 km/h 16.7 mph /  26.9 km/h 30 % 0.0 in /  0 mm
15:46 34.4 °F /  1.3 °C 14.3 °F /  -9.8 °C 1014.8 in /  34361.1 hPa WSW 13.0 mph /  20.9 km/h 13.0 mph /  20.9 km/h 30 % 0.0 in /  0 mm
15:51 34.1 °F /  1.2 °C 14.1 °F /  -9.9 °C 1014.8 in /  34361.1 hPa SSW 20.9 mph /  33.6 km/h 20.9 mph /  33.6 km/h 30 % 0.0 in /  0 mm
15:56 34.1 °F /  1.2 °C 14.1 °F /  -9.9 °C 1014.8 in /  34361.1 hPa SW 11.1 mph /  17.9 km/h 11.1 mph /  17.9 km/h 30 % 0.0 in /  0 mm
16:01 33.8 °F /  1 °C 13.8 °F /  -10.1 °C 1014.8 in /  34361.1 hPa SSW 16.7 mph /  26.9 km/h 16.7 mph /  26.9 km/h 30 % 0.0 in /  0 mm
16:06 33.6 °F /  0.9 °C 14.1 °F /  -9.9 °C 1014.8 in /  34361.1 hPa WSW 14.8 mph /  23.8 km/h 14.8 mph /  23.8 km/h 31 % 0.0 in /  0 mm
16:11 33.4 °F /  0.8 °C 13.9 °F /  -10.1 °C 1014.8 in /  34361.1 hPa WSW 16.7 mph /  26.9 km/h 16.7 mph /  26.9 km/h 31 % 0.0 in /  0 mm
16:16 33.5 °F /  0.8 °C 14.1 °F /  -9.9 °C 1014.8 in /  34361.1 hPa SW 22.2 mph /  35.7 km/h 22.2 mph /  35.7 km/h 31 % 0.0 in /  0 mm
16:21 33.4 °F /  0.8 °C 13.9 °F /  -10.1 °C 1014.8 in /  34361.1 hPa South 16.7 mph /  26.9 km/h 16.7 mph /  26.9 km/h 31 % 0.0 in /  0 mm
16:26 33.2 °F /  0.7 °C 13.3 °F /  -10.4 °C 1014.8 in /  34361.1 hPa SW 22.2 mph /  35.7 km/h 22.2 mph /  35.7 km/h 30 % 0.0 in /  0 mm
16:31 32.9 °F /  0.5 °C 13.1 °F /  -10.5 °C 1014.8 in /  34361.1 hPa South 20.4 mph /  32.8 km/h 20.4 mph /  32.8 km/h 30 % 0.0 in /  0 mm
16:36 32.8 °F /  0.4 °C 13.4 °F /  -10.3 °C 1014.8 in /  34361.1 hPa SSW 9.7 mph /  15.6 km/h 9.7 mph /  15.6 km/h 31 % 0.0 in /  0 mm
16:41 32.4 °F /  0.2 °C 13.1 °F /  -10.5 °C 1014.8 in /  34361.1 hPa SW 22.2 mph /  35.7 km/h 22.2 mph /  35.7 km/h 31 % 0.0 in /  0 mm
16:46 32.9 °F /  0.5 °C 13.6 °F /  -10.2 °C 1014.8 in /  34361.1 hPa SW 14.8 mph /  23.8 km/h 14.8 mph /  23.8 km/h 31 % 0.0 in /  0 mm
16:51 32.8 °F /  0.4 °C 13.4 °F /  -10.3 °C 1014.8 in /  34361.1 hPa West 16.4 mph /  26.4 km/h 16.4 mph /  26.4 km/h 31 % 0.0 in /  0 mm
16:56 32.7 °F /  0.4 °C 13.3 °F /  -10.4 °C 1014.8 in /  34361.1 hPa SW 14.8 mph /  23.8 km/h 14.8 mph /  23.8 km/h 31 % 0.0 in /  0 mm
17:01 32.3 °F /  0.2 °C 13.0 °F /  -10.6 °C 1015.8 in /  34395 hPa South 22.2 mph /  35.7 km/h 22.2 mph /  35.7 km/h 31 % 0.0 in /  0 mm
17:06 32.3 °F /  0.2 °C 13.0 °F /  -10.6 °C 1015.8 in /  34395 hPa SSW 20.4 mph /  32.8 km/h 20.4 mph /  32.8 km/h 31 % 0.0 in /  0 mm
17:11 32.3 °F /  0.2 °C 13.0 °F /  -10.6 °C 1015.8 in /  34395 hPa SSW 13.0 mph /  20.9 km/h 13.0 mph /  20.9 km/h 31 % 0.0 in /  0 mm
17:16 32.0 °F /  0 °C 12.8 °F /  -10.7 °C 1015.8 in /  34395 hPa SW 13.0 mph /  20.9 km/h 13.0 mph /  20.9 km/h 31 % 0.0 in /  0 mm
17:21 31.8 °F /  -0.1 °C 12.1 °F /  -11.1 °C 1015.8 in /  34395 hPa SW 16.7 mph /  26.9 km/h 16.7 mph /  26.9 km/h 30 % 0.0 in /  0 mm
17:26 31.8 °F /  -0.1 °C 12.6 °F /  -10.8 °C 1015.8 in /  34395 hPa SW 16.7 mph /  26.9 km/h 16.7 mph /  26.9 km/h 31 % 0.0 in /  0 mm
17:31 31.7 °F /  -0.2 °C 12.0 °F /  -11.1 °C 1015.8 in /  34395 hPa WSW 9.5 mph /  15.3 km/h 9.5 mph /  15.3 km/h 30 % 0.0 in /  0 mm
17:36 31.9 °F /  -0.1 °C 12.7 °F /  -10.7 °C 1015.8 in /  34395 hPa WSW 21.2 mph /  34.1 km/h 21.2 mph /  34.1 km/h 31 % 0.0 in /  0 mm
17:41 31.8 °F /  -0.1 °C 12.6 °F /  -10.8 °C 1015.8 in /  34395 hPa SW 20.4 mph /  32.8 km/h 20.4 mph /  32.8 km/h 31 % 0.0 in /  0 mm
17:46 31.3 °F /  -0.4 °C 11.7 °F /  -11.3 °C 1014.8 in /  34361.1 hPa SW 18.5 mph /  29.8 km/h 18.5 mph /  29.8 km/h 30 % 0.0 in /  0 mm
17:51 31.5 °F /  -0.3 °C 11.8 °F /  -11.2 °C 1014.8 in /  34361.1 hPa South 14.8 mph /  23.8 km/h 14.8 mph /  23.8 km/h 30 % 0.0 in /  0 mm
17:56 31.6 °F /  -0.2 °C 12.4 °F /  -10.9 °C 1014.8 in /  34361.1 hPa SW 13.0 mph /  20.9 km/h 13.0 mph /  20.9 km/h 31 % 0.0 in /  0 mm
18:01 31.5 °F /  -0.3 °C 12.3 °F /  -10.9 °C 1014.8 in /  34361.1 hPa SSW 14.8 mph /  23.8 km/h 14.8 mph /  23.8 km/h 31 % 0.0 in /  0 mm
18:06 31.6 °F /  -0.2 °C 12.4 °F /  -10.9 °C 1014.8 in /  34361.1 hPa WNW 13.0 mph /  20.9 km/h 13.0 mph /  20.9 km/h 31 % 0.0 in /  0 mm
18:11 31.6 °F /  -0.2 °C 12.4 °F /  -10.9 °C 1014.8 in /  34361.1 hPa South 11.1 mph /  17.9 km/h 11.1 mph /  17.9 km/h 31 % 0.0 in /  0 mm
18:16 31.3 °F /  -0.4 °C 12.6 °F /  -10.8 °C 1014.8 in /  34361.1 hPa WSW 13.0 mph /  20.9 km/h 13.0 mph /  20.9 km/h 32 % 0.0 in /  0 mm
18:21 31.3 °F /  -0.4 °C 12.6 °F /  -10.8 °C 1014.8 in /  34361.1 hPa SW 9.3 mph /  15 km/h 9.3 mph /  15 km/h 32 % 0.0 in /  0 mm
18:26 31.3 °F /  -0.4 °C 13.1 °F /  -10.5 °C 1014.8 in /  34361.1 hPa SSW 13.0 mph /  20.9 km/h 13.0 mph /  20.9 km/h 33 % 0.0 in /  0 mm
18:31 31.3 °F /  -0.4 °C 13.1 °F /  -10.5 °C 1015.8 in /  34395 hPa South 9.3 mph /  15 km/h 9.3 mph /  15 km/h 33 % 0.0 in /  0 mm
18:36 31.0 °F /  -0.6 °C 12.8 °F /  -10.7 °C 1015.8 in /  34395 hPa SW 9.3 mph /  15 km/h 9.3 mph /  15 km/h 33 % 0.0 in /  0 mm
18:41 31.0 °F /  -0.6 °C 12.8 °F /  -10.7 °C 1015.8 in /  34395 hPa SW 18.5 mph /  29.8 km/h 18.5 mph /  29.8 km/h 33 % 0.0 in /  0 mm
18:46 31.0 °F /  -0.6 °C 13.3 °F /  -10.4 °C 1014.8 in /  34361.1 hPa NW 7.4 mph /  11.9 km/h 7.4 mph /  11.9 km/h 34 % 0.0 in /  0 mm
18:51 30.9 °F /  -0.6 °C 12.8 °F /  -10.7 °C 1014.8 in /  34361.1 hPa WSW 6.1 mph /  9.8 km/h 6.1 mph /  9.8 km/h 33 % 0.0 in /  0 mm
18:56 30.7 °F /  -0.7 °C 12.6 °F /  -10.8 °C 1014.8 in /  34361.1 hPa West 14.8 mph /  23.8 km/h 14.8 mph /  23.8 km/h 33 % 0.0 in /  0 mm
19:01 30.8 °F /  -0.7 °C 12.7 °F /  -10.7 °C 1014.8 in /  34361.1 hPa South 11.4 mph /  18.3 km/h 11.4 mph /  18.3 km/h 33 % 0.0 in /  0 mm
19:06 30.7 °F /  -0.7 °C 13.1 °F /  -10.5 °C 1014.8 in /  34361.1 hPa WSW 7.4 mph /  11.9 km/h 7.4 mph /  11.9 km/h 34 % 0.0 in /  0 mm
19:11 30.6 °F /  -0.8 °C 12.9 °F /  -10.6 °C 1014.8 in /  34361.1 hPa SSW 7.4 mph /  11.9 km/h 7.4 mph /  11.9 km/h 34 % 0.0 in /  0 mm
19:15 24.0 °F /  -4.4 °C 13.2 °F /  -10.4 °C 1017.8 in /  34462.7 hPa SW 4.8 mph /  7.7 km/h 4.8 mph /  7.7 km/h 51 % 0.0 in /  0 mm
19:16 30.5 °F /  -0.8 °C 12.9 °F /  -10.6 °C 1014.8 in /  34361.1 hPa SW 13.7 mph /  22 km/h 13.7 mph /  22 km/h 34 % 0.0 in /  0 mm
19:21 30.1 °F /  -1.1 °C 12.5 °F /  -10.8 °C 1014.8 in /  34361.1 hPa South 9.3 mph /  15 km/h 9.3 mph /  15 km/h 34 % 0.0 in /  0 mm
19:25 24.0 °F /  -4.4 °C 13.8 °F /  -10.1 °C 1017.8 in /  34462.7 hPa SW 1.6 mph /  2.6 km/h 4.8 mph /  7.7 km/h 53 % 0.0 in /  0 mm
19:26 30.0 °F /  -1.1 °C 12.4 °F /  -10.9 °C 1014.8 in /  34361.1 hPa SSE 9.3 mph /  15 km/h 9.3 mph /  15 km/h 34 % 0.0 in /  0 mm
19:31 29.7 °F /  -1.3 °C 12.6 °F /  -10.8 °C 1015.8 in /  34395 hPa SW 7.4 mph /  11.9 km/h 7.4 mph /  11.9 km/h 35 % 0.0 in /  0 mm
19:35 23.9 °F /  -4.5 °C 14.0 °F /  -10 °C 1017.8 in /  34462.7 hPa WSW 3.2 mph /  5.1 km/h 4.8 mph /  7.7 km/h 54 % 0.0 in /  0 mm
19:36 29.6 °F /  -1.3 °C 12.5 °F /  -10.8 °C 1015.8 in /  34395 hPa WSW 7.4 mph /  11.9 km/h 7.4 mph /  11.9 km/h 35 % 0.0 in /  0 mm
19:41 29.4 °F /  -1.4 °C 12.8 °F /  -10.7 °C 1015.8 in /  34395 hPa SE 3.7 mph /  6 km/h 3.7 mph /  6 km/h 36 % 0.0 in /  0 mm
19:45 23.8 °F /  -4.6 °C 14.2 °F /  -9.9 °C 1017.8 in /  34462.7 hPa SW 3.2 mph /  5.1 km/h 4.8 mph /  7.7 km/h 55 % 0.0 in /  0 mm
19:46 29.5 °F /  -1.4 °C 12.8 °F /  -10.7 °C 1015.8 in /  34395 hPa WSW 5.6 mph /  9 km/h 5.6 mph /  9 km/h 36 % 0.0 in /  0 mm
19:51 29.2 °F /  -1.6 °C 12.6 °F /  -10.8 °C 1015.8 in /  34395 hPa West 9.3 mph /  15 km/h 9.3 mph /  15 km/h 36 % 0.0 in /  0 mm
19:55 23.8 °F /  -4.6 °C 14.5 °F /  -9.7 °C 1017.8 in /  34462.7 hPa WSW 1.6 mph /  2.6 km/h 4.8 mph /  7.7 km/h 56 % 0.0 in /  0 mm
19:56 29.1 °F /  -1.6 °C 12.5 °F /  -10.8 °C 1015.8 in /  34395 hPa SW 2.3 mph /  3.7 km/h   36 % 0.0 in /  0 mm
20:01 29.0 °F /  -1.7 °C 12.4 °F /  -10.9 °C 1015.8 in /  34395 hPa WSW 3.7 mph /  6 km/h 3.7 mph /  6 km/h 36 % 0.0 in /  0 mm
20:05 23.7 °F /  -4.6 °C 14.4 °F /  -9.8 °C 1017.8 in /  34462.7 hPa WSW 3.2 mph /  5.1 km/h 4.8 mph /  7.7 km/h 56 % 0.0 in /  0 mm
20:06 29.0 °F /  -1.7 °C 12.8 °F /  -10.7 °C 1015.8 in /  34395 hPa WSW 7.4 mph /  11.9 km/h 7.4 mph /  11.9 km/h 37 % 0.0 in /  0 mm
20:11 28.8 °F /  -1.8 °C 13.1 °F /  -10.5 °C 1015.8 in /  34395 hPa WSW 6.1 mph /  9.8 km/h 6.1 mph /  9.8 km/h 38 % 0.0 in /  0 mm
20:15 23.6 °F /  -4.7 °C 14.6 °F /  -9.7 °C 1017.8 in /  34462.7 hPa SW 3.2 mph /  5.1 km/h 4.8 mph /  7.7 km/h 57 % 0.0 in /  0 mm
20:16 28.6 °F /  -1.9 °C 12.9 °F /  -10.6 °C 1015.8 in /  34395 hPa South 11.1 mph /  17.9 km/h 11.1 mph /  17.9 km/h 38 % 0.0 in /  0 mm
20:21 28.4 °F /  -2 °C 12.7 °F /  -10.7 °C 1015.8 in /  34395 hPa SW 11.1 mph /  17.9 km/h 11.1 mph /  17.9 km/h 38 % 0.0 in /  0 mm
20:25 23.5 °F /  -4.7 °C 14.2 °F /  -9.9 °C 1017.8 in /  34462.7 hPa SW 4.8 mph /  7.7 km/h 6.4 mph /  10.3 km/h 56 % 0.0 in /  0 mm
20:26 28.3 °F /  -2.1 °C 13.0 °F /  -10.6 °C 1015.8 in /  34395 hPa SW 5.3 mph /  8.5 km/h 5.3 mph /  8.5 km/h 39 % 0.0 in /  0 mm
20:31 28.2 °F /  -2.1 °C 12.9 °F /  -10.6 °C 1015.8 in /  34395 hPa SW 5.6 mph /  9 km/h 5.6 mph /  9 km/h 39 % 0.0 in /  0 mm
20:35 23.5 °F /  -4.7 °C 14.2 °F /  -9.9 °C 1017.8 in /  34462.7 hPa SW 4.8 mph /  7.7 km/h 6.4 mph /  10.3 km/h 56 % 0.0 in /  0 mm
20:36 28.0 °F /  -2.2 °C 12.8 °F /  -10.7 °C 1015.8 in /  34395 hPa SW 7.4 mph /  11.9 km/h 7.4 mph /  11.9 km/h 39 % 0.0 in /  0 mm
20:41 27.9 °F /  -2.3 °C 12.7 °F /  -10.7 °C 1015.8 in /  34395 hPa SW 7.4 mph /  11.9 km/h 7.4 mph /  11.9 km/h 39 % 0.0 in /  0 mm
20:45 23.5 °F /  -4.7 °C 14.2 °F /  -9.9 °C 1017.8 in /  34462.7 hPa SW 3.2 mph /  5.1 km/h 4.8 mph /  7.7 km/h 56 % 0.0 in /  0 mm
20:46 27.7 °F /  -2.4 °C 12.5 °F /  -10.8 °C 1015.8 in /  34395 hPa SW 9.3 mph /  15 km/h 9.3 mph /  15 km/h 39 % 0.0 in /  0 mm
20:48 27.7 °F /  -2.4 °C 12.5 °F /  -10.8 °C 1015.8 in /  34395 hPa SW 7.4 mph /  11.9 km/h 7.4 mph /  11.9 km/h 39 % 0.0 in /  0 mm
20:53 27.5 °F /  -2.5 °C 12.3 °F /  -10.9 °C 1015.8 in /  34395 hPa West 9.5 mph /  15.3 km/h 9.5 mph /  15.3 km/h 39 % 0.0 in /  0 mm
20:55 23.3 °F /  -4.8 °C 14.3 °F /  -9.8 °C 1016.8 in /  34428.8 hPa WSW 3.2 mph /  5.1 km/h 4.8 mph /  7.7 km/h 57 % 0.0 in /  0 mm
20:58 27.3 °F /  -2.6 °C 12.1 °F /  -11.1 °C 1015.8 in /  34395 hPa SW 7.4 mph /  11.9 km/h 7.4 mph /  11.9 km/h 39 % 0.0 in /  0 mm
21:03 27.1 °F /  -2.7 °C 12.3 °F /  -10.9 °C 1014.8 in /  34361.1 hPa SW 5.8 mph /  9.3 km/h 5.8 mph /  9.3 km/h 40 % 0.0 in /  0 mm
21:05 23.3 °F /  -4.8 °C 14.3 °F /  -9.8 °C 1017.8 in /  34462.7 hPa WSW 1.6 mph /  2.6 km/h 3.2 mph /  5.1 km/h 57 % 0.0 in /  0 mm
21:08 27.0 °F /  -2.8 °C 12.6 °F /  -10.8 °C 1014.8 in /  34361.1 hPa WSW 5.6 mph /  9 km/h 5.6 mph /  9 km/h 41 % 0.0 in /  0 mm
21:13 26.9 °F /  -2.8 °C 12.9 °F /  -10.6 °C 1014.8 in /  34361.1 hPa SW 7.4 mph /  11.9 km/h 7.4 mph /  11.9 km/h 42 % 0.0 in /  0 mm
21:15 23.2 °F /  -4.9 °C 14.5 °F /  -9.7 °C 1017.8 in /  34462.7 hPa WSW 3.2 mph /  5.1 km/h 4.8 mph /  7.7 km/h 58 % 0.0 in /  0 mm
21:18 26.7 °F /  -2.9 °C 12.7 °F /  -10.7 °C 1014.8 in /  34361.1 hPa SW 7.4 mph /  11.9 km/h 7.4 mph /  11.9 km/h 42 % 0.0 in /  0 mm
21:23 26.7 °F /  -2.9 °C 12.7 °F /  -10.7 °C 1014.8 in /  34361.1 hPa West 7.4 mph /  11.9 km/h 7.4 mph /  11.9 km/h 42 % 0.0 in /  0 mm
21:25 23.0 °F /  -5 °C 14.3 °F /  -9.8 °C 1016.8 in /  34428.8 hPa SW 3.2 mph /  5.1 km/h 3.2 mph /  5.1 km/h 58 % 0.0 in /  0 mm
21:28 26.6 °F /  -3 °C 12.6 °F /  -10.8 °C 1014.8 in /  34361.1 hPa WSW 5.6 mph /  9 km/h 5.6 mph /  9 km/h 42 % 0.0 in /  0 mm
21:33 26.5 °F /  -3.1 °C 12.6 °F /  -10.8 °C 1014.8 in /  34361.1 hPa SW 9.3 mph /  15 km/h 9.3 mph /  15 km/h 42 % 0.0 in /  0 mm
21:35 22.9 °F /  -5.1 °C 14.4 °F /  -9.8 °C 1017.8 in /  34462.7 hPa WSW 3.2 mph /  5.1 km/h 3.2 mph /  5.1 km/h 59 % 0.0 in /  0 mm
21:38 26.3 °F /  -3.2 °C 12.4 °F /  -10.9 °C 1014.8 in /  34361.1 hPa SW 6.1 mph /  9.8 km/h 6.1 mph /  9.8 km/h 42 % 0.0 in /  0 mm
21:43 26.2 °F /  -3.2 °C 12.3 °F /  -10.9 °C 1014.8 in /  34361.1 hPa SW 7.4 mph /  11.9 km/h 7.4 mph /  11.9 km/h 42 % 0.0 in /  0 mm
21:45 22.9 °F /  -5.1 °C 14.4 °F /  -9.8 °C 1017.8 in /  34462.7 hPa WSW 3.2 mph /  5.1 km/h 4.8 mph /  7.7 km/h 59 % 0.0 in /  0 mm
21:48 26.1 °F /  -3.3 °C 12.6 °F /  -10.8 °C 1015.8 in /  34395 hPa West 9.7 mph /  15.6 km/h 9.7 mph /  15.6 km/h 43 % 0.0 in /  0 mm
21:53 26.0 °F /  -3.3 °C 12.4 °F /  -10.9 °C 1015.8 in /  34395 hPa SW 6.1 mph /  9.8 km/h 6.1 mph /  9.8 km/h 43 % 0.0 in /  0 mm
21:55 22.8 °F /  -5.1 °C 14.4 °F /  -9.8 °C 1017.8 in /  34462.7 hPa WSW 3.2 mph /  5.1 km/h 3.2 mph /  5.1 km/h 59 % 0.0 in /  0 mm
21:58 25.9 °F /  -3.4 °C 12.3 °F /  -10.9 °C 1015.8 in /  34395 hPa WSW 5.6 mph /  9 km/h 5.6 mph /  9 km/h 43 % 0.0 in /  0 mm
22:03 25.8 °F /  -3.4 °C 12.3 °F /  -10.9 °C 1015.8 in /  34395 hPa WSW 7.4 mph /  11.9 km/h 7.4 mph /  11.9 km/h 43 % 0.0 in /  0 mm
22:05 22.7 °F /  -5.2 °C 14.6 °F /  -9.7 °C 1017.8 in /  34462.7 hPa SW 3.2 mph /  5.1 km/h 4.8 mph /  7.7 km/h 60 % 0.0 in /  0 mm
22:08 25.7 °F /  -3.5 °C 12.2 °F /  -11 °C 1015.8 in /  34395 hPa SW 11.4 mph /  18.3 km/h 11.4 mph /  18.3 km/h 43 % 0.0 in /  0 mm
22:13 25.6 °F /  -3.6 °C 12.1 °F /  -11.1 °C 1015.8 in /  34395 hPa SW 7.4 mph /  11.9 km/h 7.4 mph /  11.9 km/h 43 % 0.0 in /  0 mm
22:15 22.6 °F /  -5.2 °C 14.4 °F /  -9.8 °C 1017.8 in /  34462.7 hPa SW 3.2 mph /  5.1 km/h 4.8 mph /  7.7 km/h 60 % 0.0 in /  0 mm
22:18 25.6 °F /  -3.6 °C 12.1 °F /  -11.1 °C 1014.8 in /  34361.1 hPa West 6.1 mph /  9.8 km/h 6.1 mph /  9.8 km/h 43 % 0.0 in /  0 mm
22:23 25.6 °F /  -3.6 °C 12.4 °F /  -10.9 °C 1014.8 in /  34361.1 hPa WSW 7.4 mph /  11.9 km/h 7.4 mph /  11.9 km/h 44 % 0.0 in /  0 mm
22:25 22.5 °F /  -5.3 °C 14.6 °F /  -9.7 °C 1017.8 in /  34462.7 hPa SW 1.6 mph /  2.6 km/h 6.4 mph /  10.3 km/h 61 % 0.0 in /  0 mm
22:28 25.5 °F /  -3.6 °C 12.3 °F /  -10.9 °C 1014.8 in /  34361.1 hPa South 3.9 mph /  6.3 km/h 3.9 mph /  6.3 km/h 44 % 0.0 in /  0 mm
22:35 25.4 °F /  -3.7 °C 12.3 °F /  -10.9 °C 1016.8 in /  34428.8 hPa West 7.4 mph /  11.9 km/h 7.4 mph /  11.9 km/h 44 % 0.0 in /  0 mm
22:40 25.3 °F /  -3.7 °C 12.2 °F /  -11 °C 1016.8 in /  34428.8 hPa WSW 7.4 mph /  11.9 km/h 7.4 mph /  11.9 km/h 44 % 0.0 in /  0 mm
22:45 25.2 °F /  -3.8 °C 12.4 °F /  -10.9 °C 1015.8 in /  34395 hPa SW 9.3 mph /  15 km/h 9.3 mph /  15 km/h 45 % 0.0 in /  0 mm
22:50 25.1 °F /  -3.8 °C 12.3 °F /  -10.9 °C 1015.8 in /  34395 hPa SW 9.3 mph /  15 km/h 9.3 mph /  15 km/h 45 % 0.0 in /  0 mm
22:55 25.0 °F /  -3.9 °C 12.2 °F /  -11 °C 1015.8 in /  34395 hPa SW 9.3 mph /  15 km/h 9.3 mph /  15 km/h 45 % 0.0 in /  0 mm
23:00 25.0 °F /  -3.9 °C 12.6 °F /  -10.8 °C 1016.8 in /  34428.8 hPa WSW 5.6 mph /  9 km/h 5.6 mph /  9 km/h 46 % 0.0 in /  0 mm
23:01 25.0 °F /  -3.9 °C 12.6 °F /  -10.8 °C 1016.8 in /  34428.8 hPa WSW 5.8 mph /  9.3 km/h 5.8 mph /  9.3 km/h 46 % 0.0 in /  0 mm
23:05 22.4 °F /  -5.3 °C 14.8 °F /  -9.6 °C 1016.8 in /  34428.8 hPa WSW 3.2 mph /  5.1 km/h 4.8 mph /  7.7 km/h 62 % 0.0 in /  0 mm
23:06 25.0 °F /  -3.9 °C 12.6 °F /  -10.8 °C 1016.8 in /  34428.8 hPa WSW 5.6 mph /  9 km/h 5.6 mph /  9 km/h 46 % 0.0 in /  0 mm
23:11 24.9 °F /  -3.9 °C 12.8 °F /  -10.7 °C 1016.8 in /  34428.8 hPa SW 7.4 mph /  11.9 km/h 7.4 mph /  11.9 km/h 47 % 0.0 in /  0 mm
23:15 22.3 °F /  -5.4 °C 14.7 °F /  -9.6 °C 1016.8 in /  34428.8 hPa WSW 1.6 mph /  2.6 km/h 4.8 mph /  7.7 km/h 62 % 0.0 in /  0 mm
23:16 24.8 °F /  -4 °C 12.7 °F /  -10.7 °C 1017.8 in /  34462.7 hPa SW 7.4 mph /  11.9 km/h 7.4 mph /  11.9 km/h 47 % 0.0 in /  0 mm
23:21 24.7 °F /  -4.1 °C 12.6 °F /  -10.8 °C 1017.8 in /  34462.7 hPa SW 5.0 mph /  8 km/h 5.0 mph /  8 km/h 47 % 0.0 in /  0 mm
23:25 22.4 °F /  -5.3 °C 14.8 °F /  -9.6 °C 1017.8 in /  34462.7 hPa WSW 3.2 mph /  5.1 km/h 3.2 mph /  5.1 km/h 62 % 0.0 in /  0 mm
23:26 24.6 °F /  -4.1 °C 12.8 °F /  -10.7 °C 1017.8 in /  34462.7 hPa SW 3.7 mph /  6 km/h 3.7 mph /  6 km/h 48 % 0.0 in /  0 mm
23:31 24.6 °F /  -4.1 °C 12.8 °F /  -10.7 °C 1017.8 in /  34462.7 hPa SW 3.7 mph /  6 km/h 3.7 mph /  6 km/h 48 % 0.0 in /  0 mm
23:35 22.5 °F /  -5.3 °C 14.6 °F /  -9.7 °C 1017.8 in /  34462.7 hPa West 3.2 mph /  5.1 km/h 4.8 mph /  7.7 km/h 61 % 0.0 in /  0 mm
23:36 24.5 °F /  -4.2 °C 12.8 °F /  -10.7 °C 1017.8 in /  34462.7 hPa West 5.6 mph /  9 km/h 5.6 mph /  9 km/h 48 % 0.0 in /  0 mm
23:41 24.5 °F /  -4.2 °C 12.8 °F /  -10.7 °C 1017.8 in /  34462.7 hPa WSW 3.7 mph /  6 km/h 3.7 mph /  6 km/h 48 % 0.0 in /  0 mm
23:45 22.5 °F /  -5.3 °C 14.6 °F /  -9.7 °C 1017.8 in /  34462.7 hPa West 4.8 mph /  7.7 km/h 4.8 mph /  7.7 km/h 61 % 0.0 in /  0 mm
23:46 24.5 °F /  -4.2 °C 13.1 °F /  -10.5 °C 1017.8 in /  34462.7 hPa West 3.7 mph /  6 km/h 3.7 mph /  6 km/h 49 % 0.0 in /  0 mm
23:51 24.4 °F /  -4.2 °C 13.0 °F /  -10.6 °C 1017.8 in /  34462.7 hPa WSW 5.6 mph /  9 km/h 5.6 mph /  9 km/h 49 % 0.0 in /  0 mm
23:55 22.4 °F /  -5.3 °C 14.8 °F /  -9.6 °C 1017.8 in /  34462.7 hPa West 3.2 mph /  5.1 km/h 4.8 mph /  7.7 km/h 62 % 0.0 in /  0 mm
23:56 24.3 °F /  -4.3 °C 13.2 °F /  -10.4 °C 1017.8 in /  34462.7 hPa SW 3.9 mph /  6.3 km/h 3.9 mph /  6.3 km/h 50 % 0.0 in /  0 mm
Meteo Sesrovires
Elogis d' Weather Underground - 1.5 mb

Guio original per  Jim McMurry - jmcmurry@mwt.net Adaptat per a la plantilla per  Wim van der Kuil - Leuven-Template.eu

Trobareu la nostra informacio del temps tambe a:

Weather Underground

AWEKAS